sensor_id;sensor_type;location;lat;lon;timestamp;temperature;humidity
4390;DHT22;2209;48.982;8.406;2022-11-20T00:02:22;7.80;99.90
4390;DHT22;2209;48.982;8.406;2022-11-20T00:04:44;7.80;99.90
4390;DHT22;2209;48.982;8.406;2022-11-20T00:07:06;7.80;99.90
4390;DHT22;2209;48.982;8.406;2022-11-20T00:09:28;7.80;99.90
4390;DHT22;2209;48.982;8.406;2022-11-20T00:11:50;7.80;99.90
4390;DHT22;2209;48.982;8.406;2022-11-20T00:14:13;7.80;99.90
4390;DHT22;2209;48.982;8.406;2022-11-20T00:16:36;7.80;99.90
4390;DHT22;2209;48.982;8.406;2022-11-20T00:18:58;7.80;99.90
4390;DHT22;2209;48.982;8.406;2022-11-20T00:21:22;7.80;99.90
4390;DHT22;2209;48.982;8.406;2022-11-20T00:23:44;7.80;99.90
4390;DHT22;2209;48.982;8.406;2022-11-20T00:26:08;7.80;99.90
4390;DHT22;2209;48.982;8.406;2022-11-20T00:28:31;7.80;99.90
4390;DHT22;2209;48.982;8.406;2022-11-20T00:31:00;7.80;99.90
4390;DHT22;2209;48.982;8.406;2022-11-20T00:33:23;7.80;99.90
4390;DHT22;2209;48.982;8.406;2022-11-20T00:35:46;7.80;99.90
4390;DHT22;2209;48.982;8.406;2022-11-20T00:38:08;7.80;99.90
4390;DHT22;2209;48.982;8.406;2022-11-20T00:40:30;7.80;99.90
4390;DHT22;2209;48.982;8.406;2022-11-20T00:42:52;7.80;99.90
4390;DHT22;2209;48.982;8.406;2022-11-20T00:45:14;7.80;99.90
4390;DHT22;2209;48.982;8.406;2022-11-20T00:47:36;7.80;99.90
4390;DHT22;2209;48.982;8.406;2022-11-20T00:50:00;7.80;99.90
4390;DHT22;2209;48.982;8.406;2022-11-20T00:52:22;7.80;99.90
4390;DHT22;2209;48.982;8.406;2022-11-20T00:54:44;7.70;99.90
4390;DHT22;2209;48.982;8.406;2022-11-20T00:57:06;7.80;99.90
4390;DHT22;2209;48.982;8.406;2022-11-20T00:59:28;7.80;99.90
4390;DHT22;2209;48.982;8.406;2022-11-20T01:01:50;7.80;99.90
4390;DHT22;2209;48.982;8.406;2022-11-20T01:04:12;7.80;99.90
4390;DHT22;2209;48.982;8.406;2022-11-20T01:06:37;7.80;99.90
4390;DHT22;2209;48.982;8.406;2022-11-20T01:09:01;7.80;99.90
4390;DHT22;2209;48.982;8.406;2022-11-20T01:11:25;7.80;99.90
4390;DHT22;2209;48.982;8.406;2022-11-20T01:13:49;7.80;99.90
4390;DHT22;2209;48.982;8.406;2022-11-20T01:16:13;7.80;99.90
4390;DHT22;2209;48.982;8.406;2022-11-20T01:18:36;7.80;99.90
4390;DHT22;2209;48.982;8.406;2022-11-20T01:21:03;7.80;99.90
4390;DHT22;2209;48.982;8.406;2022-11-20T01:23:29;7.80;99.90
4390;DHT22;2209;48.982;8.406;2022-11-20T01:25:52;7.80;99.90
4390;DHT22;2209;48.982;8.406;2022-11-20T01:28:14;7.80;99.90
4390;DHT22;2209;48.982;8.406;2022-11-20T01:30:36;7.80;99.90
4390;DHT22;2209;48.982;8.406;2022-11-20T01:32:58;7.80;99.90
4390;DHT22;2209;48.982;8.406;2022-11-20T01:35:20;7.80;99.90
4390;DHT22;2209;48.982;8.406;2022-11-20T01:37:42;7.80;99.90
4390;DHT22;2209;48.982;8.406;2022-11-20T01:40:06;7.80;99.90
4390;DHT22;2209;48.982;8.406;2022-11-20T01:42:29;7.80;99.90
4390;DHT22;2209;48.982;8.406;2022-11-20T01:45:48;7.80;99.90
4390;DHT22;2209;48.982;8.406;2022-11-20T01:48:12;7.80;99.90
4390;DHT22;2209;48.982;8.406;2022-11-20T01:50:36;7.80;99.90
4390;DHT22;2209;48.982;8.406;2022-11-20T01:53:00;7.80;99.90
4390;DHT22;2209;48.982;8.406;2022-11-20T01:55:27;7.80;99.90
4390;DHT22;2209;48.982;8.406;2022-11-20T01:57:51;7.80;99.90
4390;DHT22;2209;48.982;8.406;2022-11-20T02:00:15;7.80;99.90
4390;DHT22;2209;48.982;8.406;2022-11-20T02:02:39;7.90;99.90
4390;DHT22;2209;48.982;8.406;2022-11-20T02:05:09;7.90;99.90
4390;DHT22;2209;48.982;8.406;2022-11-20T02:07:34;7.90;99.90
4390;DHT22;2209;48.982;8.406;2022-11-20T02:09:56;7.90;99.90
4390;DHT22;2209;48.982;8.406;2022-11-20T02:12:20;8.00;99.90
4390;DHT22;2209;48.982;8.406;2022-11-20T02:14:58;8.00;99.90
4390;DHT22;2209;48.982;8.406;2022-11-20T02:17:20;8.00;99.90
4390;DHT22;2209;48.982;8.406;2022-11-20T02:19:44;8.00;99.90
4390;DHT22;2209;48.982;8.406;2022-11-20T02:22:10;8.10;99.90
4390;DHT22;2209;48.982;8.406;2022-11-20T02:24:35;8.10;99.90
4390;DHT22;2209;48.982;8.406;2022-11-20T02:27:00;8.10;99.90
4390;DHT22;2209;48.982;8.406;2022-11-20T02:29:25;8.10;99.90
4390;DHT22;2209;48.982;8.406;2022-11-20T02:31:48;8.10;99.90
4390;DHT22;2209;48.982;8.406;2022-11-20T02:34:10;8.10;99.90
4390;DHT22;2209;48.982;8.406;2022-11-20T02:36:34;8.20;99.90
4390;DHT22;2209;48.982;8.406;2022-11-20T02:38:57;8.20;99.90
4390;DHT22;2209;48.982;8.406;2022-11-20T02:41:20;8.20;99.90
4390;DHT22;2209;48.982;8.406;2022-11-20T02:43:42;8.20;99.90
4390;DHT22;2209;48.982;8.406;2022-11-20T02:46:06;8.20;99.90
4390;DHT22;2209;48.982;8.406;2022-11-20T02:48:28;8.20;99.90
4390;DHT22;2209;48.982;8.406;2022-11-20T02:50:50;8.20;99.90
4390;DHT22;2209;48.982;8.406;2022-11-20T02:53:13;8.20;99.90
4390;DHT22;2209;48.982;8.406;2022-11-20T02:55:35;8.20;99.90
4390;DHT22;2209;48.982;8.406;2022-11-20T02:57:58;8.20;99.90
4390;DHT22;2209;48.982;8.406;2022-11-20T03:00:20;8.20;99.90
4390;DHT22;2209;48.982;8.406;2022-11-20T03:02:43;8.20;99.90
4390;DHT22;2209;48.982;8.406;2022-11-20T03:05:05;8.20;99.90
4390;DHT22;2209;48.982;8.406;2022-11-20T03:07:28;8.20;99.90
4390;DHT22;2209;48.982;8.406;2022-11-20T03:09:50;8.20;99.90
4390;DHT22;2209;48.982;8.406;2022-11-20T03:12:13;8.20;99.90
4390;DHT22;2209;48.982;8.406;2022-11-20T03:14:36;8.20;99.90
4390;DHT22;2209;48.982;8.406;2022-11-20T03:16:58;8.20;99.90
4390;DHT22;2209;48.982;8.406;2022-11-20T03:19:22;8.20;99.90
4390;DHT22;2209;48.982;8.406;2022-11-20T03:21:44;8.20;99.90
4390;DHT22;2209;48.982;8.406;2022-11-20T03:24:06;8.20;99.90
4390;DHT22;2209;48.982;8.406;2022-11-20T03:26:29;8.20;99.90
4390;DHT22;2209;48.982;8.406;2022-11-20T03:28:52;8.20;99.90
4390;DHT22;2209;48.982;8.406;2022-11-20T03:31:18;8.20;99.90
4390;DHT22;2209;48.982;8.406;2022-11-20T03:33:41;8.20;99.90
4390;DHT22;2209;48.982;8.406;2022-11-20T03:36:06;8.20;99.90
4390;DHT22;2209;48.982;8.406;2022-11-20T03:38:29;8.20;99.90
4390;DHT22;2209;48.982;8.406;2022-11-20T03:40:51;8.20;99.90
4390;DHT22;2209;48.982;8.406;2022-11-20T03:43:13;8.20;99.90
4390;DHT22;2209;48.982;8.406;2022-11-20T03:45:35;8.20;99.90
4390;DHT22;2209;48.982;8.406;2022-11-20T03:47:58;8.20;99.90
4390;DHT22;2209;48.982;8.406;2022-11-20T03:50:20;8.20;99.90
4390;DHT22;2209;48.982;8.406;2022-11-20T03:52:42;8.20;99.90
4390;DHT22;2209;48.982;8.406;2022-11-20T03:55:05;8.20;99.90
4390;DHT22;2209;48.982;8.406;2022-11-20T03:57:27;8.20;99.90
4390;DHT22;2209;48.982;8.406;2022-11-20T03:59:49;8.20;99.90
4390;DHT22;2209;48.982;8.406;2022-11-20T04:02:11;8.20;99.90
4390;DHT22;2209;48.982;8.406;2022-11-20T04:04:35;8.20;99.90
4390;DHT22;2209;48.982;8.406;2022-11-20T04:06:57;8.20;99.90
4390;DHT22;2209;48.982;8.406;2022-11-20T04:09:19;8.20;99.90
4390;DHT22;2209;48.982;8.406;2022-11-20T04:11:41;8.20;99.90
4390;DHT22;2209;48.982;8.406;2022-11-20T04:14:05;8.20;99.90
4390;DHT22;2209;48.982;8.406;2022-11-20T04:16:29;8.20;99.90
4390;DHT22;2209;48.982;8.406;2022-11-20T04:18:52;8.20;99.90
4390;DHT22;2209;48.982;8.406;2022-11-20T04:21:16;8.20;99.90
4390;DHT22;2209;48.982;8.406;2022-11-20T04:23:38;8.20;99.90
4390;DHT22;2209;48.982;8.406;2022-11-20T04:26:02;8.20;99.90
4390;DHT22;2209;48.982;8.406;2022-11-20T04:28:24;8.20;99.90
4390;DHT22;2209;48.982;8.406;2022-11-20T04:30:46;8.20;99.90
4390;DHT22;2209;48.982;8.406;2022-11-20T04:33:08;8.20;99.90
4390;DHT22;2209;48.982;8.406;2022-11-20T04:35:33;8.30;99.90
4390;DHT22;2209;48.982;8.406;2022-11-20T04:37:57;8.20;99.90
4390;DHT22;2209;48.982;8.406;2022-11-20T04:40:19;8.20;99.90
4390;DHT22;2209;48.982;8.406;2022-11-20T04:42:41;8.20;99.90
4390;DHT22;2209;48.982;8.406;2022-11-20T04:45:04;8.20;99.90
4390;DHT22;2209;48.982;8.406;2022-11-20T04:47:26;8.20;99.90
4390;DHT22;2209;48.982;8.406;2022-11-20T04:49:48;8.20;99.90
4390;DHT22;2209;48.982;8.406;2022-11-20T04:52:10;8.20;99.90
4390;DHT22;2209;48.982;8.406;2022-11-20T04:54:34;8.20;99.90
4390;DHT22;2209;48.982;8.406;2022-11-20T04:56:57;8.20;99.90
4390;DHT22;2209;48.982;8.406;2022-11-20T04:59:19;8.30;99.90
4390;DHT22;2209;48.982;8.406;2022-11-20T05:01:41;8.30;99.90
4390;DHT22;2209;48.982;8.406;2022-11-20T05:04:03;8.30;99.90
4390;DHT22;2209;48.982;8.406;2022-11-20T05:06:26;8.30;99.90
4390;DHT22;2209;48.982;8.406;2022-11-20T05:08:48;8.30;99.90
4390;DHT22;2209;48.982;8.406;2022-11-20T05:11:13;8.30;99.90
4390;DHT22;2209;48.982;8.406;2022-11-20T05:13:36;8.30;99.90
4390;DHT22;2209;48.982;8.406;2022-11-20T05:16:01;8.20;99.90
4390;DHT22;2209;48.982;8.406;2022-11-20T05:18:24;8.20;99.90
4390;DHT22;2209;48.982;8.406;2022-11-20T05:20:46;8.20;99.90
4390;DHT22;2209;48.982;8.406;2022-11-20T05:23:08;8.20;99.90
4390;DHT22;2209;48.982;8.406;2022-11-20T05:25:30;8.30;99.90
4390;DHT22;2209;48.982;8.406;2022-11-20T05:27:54;8.20;99.90
4390;DHT22;2209;48.982;8.406;2022-11-20T05:30:16;8.20;99.90
4390;DHT22;2209;48.982;8.406;2022-11-20T05:32:38;8.20;99.90
4390;DHT22;2209;48.982;8.406;2022-11-20T05:35:00;8.20;99.90
4390;DHT22;2209;48.982;8.406;2022-11-20T05:37:22;8.20;99.90
4390;DHT22;2209;48.982;8.406;2022-11-20T05:39:44;8.30;99.90
4390;DHT22;2209;48.982;8.406;2022-11-20T05:42:06;8.20;99.90
4390;DHT22;2209;48.982;8.406;2022-11-20T05:44:47;8.30;99.90
4390;DHT22;2209;48.982;8.406;2022-11-20T05:47:09;8.30;99.90
4390;DHT22;2209;48.982;8.406;2022-11-20T05:49:31;8.30;99.90
4390;DHT22;2209;48.982;8.406;2022-11-20T05:51:54;8.30;99.90
4390;DHT22;2209;48.982;8.406;2022-11-20T05:54:16;8.30;99.90
4390;DHT22;2209;48.982;8.406;2022-11-20T05:56:38;8.30;99.90
4390;DHT22;2209;48.982;8.406;2022-11-20T05:59:00;8.30;99.90
4390;DHT22;2209;48.982;8.406;2022-11-20T06:01:25;8.30;99.90
4390;DHT22;2209;48.982;8.406;2022-11-20T06:03:47;8.30;99.90
4390;DHT22;2209;48.982;8.406;2022-11-20T06:06:11;8.20;99.90
4390;DHT22;2209;48.982;8.406;2022-11-20T06:08:34;8.30;99.90
4390;DHT22;2209;48.982;8.406;2022-11-20T06:10:57;8.30;99.90
4390;DHT22;2209;48.982;8.406;2022-11-20T06:13:19;8.30;99.90
4390;DHT22;2209;48.982;8.406;2022-11-20T06:15:41;8.30;99.90
4390;DHT22;2209;48.982;8.406;2022-11-20T06:18:04;8.30;99.90
4390;DHT22;2209;48.982;8.406;2022-11-20T06:20:26;8.30;99.90
4390;DHT22;2209;48.982;8.406;2022-11-20T06:22:48;8.30;99.90
4390;DHT22;2209;48.982;8.406;2022-11-20T06:25:11;8.30;99.90
4390;DHT22;2209;48.982;8.406;2022-11-20T06:27:34;8.30;99.90
4390;DHT22;2209;48.982;8.406;2022-11-20T06:29:56;8.30;99.90
4390;DHT22;2209;48.982;8.406;2022-11-20T06:32:19;8.30;99.90
4390;DHT22;2209;48.982;8.406;2022-11-20T06:34:44;8.30;99.90
4390;DHT22;2209;48.982;8.406;2022-11-20T06:37:07;8.30;99.90
4390;DHT22;2209;48.982;8.406;2022-11-20T06:39:29;8.30;99.90
4390;DHT22;2209;48.982;8.406;2022-11-20T06:41:51;8.30;99.90
4390;DHT22;2209;48.982;8.406;2022-11-20T06:44:13;8.30;99.90
4390;DHT22;2209;48.982;8.406;2022-11-20T06:46:35;8.30;99.90
4390;DHT22;2209;48.982;8.406;2022-11-20T06:48:57;8.30;99.90
4390;DHT22;2209;48.982;8.406;2022-11-20T06:51:22;8.30;99.90
4390;DHT22;2209;48.982;8.406;2022-11-20T06:53:44;8.30;99.90
4390;DHT22;2209;48.982;8.406;2022-11-20T06:56:07;8.30;99.90
4390;DHT22;2209;48.982;8.406;2022-11-20T06:58:31;8.30;99.90
4390;DHT22;2209;48.982;8.406;2022-11-20T07:00:53;8.30;99.90
4390;DHT22;2209;48.982;8.406;2022-11-20T07:03:15;8.30;99.90
4390;DHT22;2209;48.982;8.406;2022-11-20T07:05:37;8.30;99.90
4390;DHT22;2209;48.982;8.406;2022-11-20T07:08:01;8.30;99.90
4390;DHT22;2209;48.982;8.406;2022-11-20T07:10:23;8.30;99.90
4390;DHT22;2209;48.982;8.406;2022-11-20T07:12:49;8.30;99.90
4390;DHT22;2209;48.982;8.406;2022-11-20T07:15:12;8.30;99.90
4390;DHT22;2209;48.982;8.406;2022-11-20T07:17:34;8.30;99.90
4390;DHT22;2209;48.982;8.406;2022-11-20T07:19:56;8.30;99.90
4390;DHT22;2209;48.982;8.406;2022-11-20T07:22:18;8.30;99.90
4390;DHT22;2209;48.982;8.406;2022-11-20T07:24:43;8.30;99.90
4390;DHT22;2209;48.982;8.406;2022-11-20T07:27:05;8.30;99.90
4390;DHT22;2209;48.982;8.406;2022-11-20T07:29:27;8.30;99.90
4390;DHT22;2209;48.982;8.406;2022-11-20T07:31:50;8.30;99.90
4390;DHT22;2209;48.982;8.406;2022-11-20T07:34:12;8.30;99.90
4390;DHT22;2209;48.982;8.406;2022-11-20T07:36:34;8.30;99.90
4390;DHT22;2209;48.982;8.406;2022-11-20T07:38:56;8.30;99.90
4390;DHT22;2209;48.982;8.406;2022-11-20T07:41:20;8.30;99.90
4390;DHT22;2209;48.982;8.406;2022-11-20T07:43:42;8.30;99.90
4390;DHT22;2209;48.982;8.406;2022-11-20T07:46:05;8.30;99.90
4390;DHT22;2209;48.982;8.406;2022-11-20T07:48:27;8.30;99.90
4390;DHT22;2209;48.982;8.406;2022-11-20T07:50:49;8.30;99.90
4390;DHT22;2209;48.982;8.406;2022-11-20T07:53:14;8.30;99.90
4390;DHT22;2209;48.982;8.406;2022-11-20T07:55:41;8.30;99.90
4390;DHT22;2209;48.982;8.406;2022-11-20T07:58:05;8.30;99.90
4390;DHT22;2209;48.982;8.406;2022-11-20T08:00:27;8.30;99.90
4390;DHT22;2209;48.982;8.406;2022-11-20T08:02:49;8.30;99.90
4390;DHT22;2209;48.982;8.406;2022-11-20T08:05:11;8.30;99.90
4390;DHT22;2209;48.982;8.406;2022-11-20T08:07:37;8.30;99.90
4390;DHT22;2209;48.982;8.406;2022-11-20T08:09:59;8.30;99.90
4390;DHT22;2209;48.982;8.406;2022-11-20T08:12:21;8.30;99.90
4390;DHT22;2209;48.982;8.406;2022-11-20T08:15:03;8.30;99.90
4390;DHT22;2209;48.982;8.406;2022-11-20T08:17:25;8.30;99.90
4390;DHT22;2209;48.982;8.406;2022-11-20T08:19:47;8.30;99.90
4390;DHT22;2209;48.982;8.406;2022-11-20T08:22:09;8.30;99.90
4390;DHT22;2209;48.982;8.406;2022-11-20T08:24:31;8.30;99.90
4390;DHT22;2209;48.982;8.406;2022-11-20T08:26:56;8.40;99.90
4390;DHT22;2209;48.982;8.406;2022-11-20T08:29:18;8.30;99.90
4390;DHT22;2209;48.982;8.406;2022-11-20T08:31:42;8.40;99.90
4390;DHT22;2209;48.982;8.406;2022-11-20T08:34:04;8.30;99.90
4390;DHT22;2209;48.982;8.406;2022-11-20T08:36:26;8.40;99.90
4390;DHT22;2209;48.982;8.406;2022-11-20T08:38:49;8.30;99.90
4390;DHT22;2209;48.982;8.406;2022-11-20T08:41:12;8.30;99.90
4390;DHT22;2209;48.982;8.406;2022-11-20T08:43:46;8.30;99.90
4390;DHT22;2209;48.982;8.406;2022-11-20T08:46:08;8.30;99.90
4390;DHT22;2209;48.982;8.406;2022-11-20T08:48:32;8.30;99.90
4390;DHT22;2209;48.982;8.406;2022-11-20T08:50:57;8.30;99.90
4390;DHT22;2209;48.982;8.406;2022-11-20T08:53:20;8.30;99.90
4390;DHT22;2209;48.982;8.406;2022-11-20T08:55:42;8.30;99.90
4390;DHT22;2209;48.982;8.406;2022-11-20T08:58:04;8.30;99.90
4390;DHT22;2209;48.982;8.406;2022-11-20T09:00:27;8.30;99.90
4390;DHT22;2209;48.982;8.406;2022-11-20T09:02:49;8.30;99.90
4390;DHT22;2209;48.982;8.406;2022-11-20T09:05:12;8.30;99.90
4390;DHT22;2209;48.982;8.406;2022-11-20T09:07:34;8.40;99.90
4390;DHT22;2209;48.982;8.406;2022-11-20T09:09:56;8.40;99.90
4390;DHT22;2209;48.982;8.406;2022-11-20T09:12:19;8.40;99.90
4390;DHT22;2209;48.982;8.406;2022-11-20T09:14:41;8.40;99.90
4390;DHT22;2209;48.982;8.406;2022-11-20T09:17:03;8.40;99.90
4390;DHT22;2209;48.982;8.406;2022-11-20T09:19:25;8.40;99.90
4390;DHT22;2209;48.982;8.406;2022-11-20T09:21:49;8.40;99.90
4390;DHT22;2209;48.982;8.406;2022-11-20T09:24:11;8.40;99.90
4390;DHT22;2209;48.982;8.406;2022-11-20T09:26:33;8.40;99.90
4390;DHT22;2209;48.982;8.406;2022-11-20T09:28:55;8.40;99.90
4390;DHT22;2209;48.982;8.406;2022-11-20T09:31:22;8.40;99.90
4390;DHT22;2209;48.982;8.406;2022-11-20T09:33:45;8.40;99.90
4390;DHT22;2209;48.982;8.406;2022-11-20T09:36:07;8.40;99.90
4390;DHT22;2209;48.982;8.406;2022-11-20T09:38:31;8.40;99.90
4390;DHT22;2209;48.982;8.406;2022-11-20T09:40:57;8.40;99.90
4390;DHT22;2209;48.982;8.406;2022-11-20T09:43:24;8.40;99.90
4390;DHT22;2209;48.982;8.406;2022-11-20T09:45:59;8.30;99.90
4390;DHT22;2209;48.982;8.406;2022-11-20T09:48:39;8.40;99.90
4390;DHT22;2209;48.982;8.406;2022-11-20T09:51:13;8.40;99.90
4390;DHT22;2209;48.982;8.406;2022-11-20T09:53:48;8.40;99.90
4390;DHT22;2209;48.982;8.406;2022-11-20T09:56:20;8.40;99.90
4390;DHT22;2209;48.982;8.406;2022-11-20T09:58:45;8.40;99.90
4390;DHT22;2209;48.982;8.406;2022-11-20T10:01:12;8.40;99.90
4390;DHT22;2209;48.982;8.406;2022-11-20T10:03:41;8.40;99.90
4390;DHT22;2209;48.982;8.406;2022-11-20T10:06:10;8.40;99.90
4390;DHT22;2209;48.982;8.406;2022-11-20T10:08:40;8.40;99.90
4390;DHT22;2209;48.982;8.406;2022-11-20T10:11:07;8.40;99.90
4390;DHT22;2209;48.982;8.406;2022-11-20T10:13:38;8.40;99.90
4390;DHT22;2209;48.982;8.406;2022-11-20T10:16:11;8.40;99.90
4390;DHT22;2209;48.982;8.406;2022-11-20T10:18:53;8.40;99.90
4390;DHT22;2209;48.982;8.406;2022-11-20T10:21:26;8.50;99.90
4390;DHT22;2209;48.982;8.406;2022-11-20T10:24:07;8.50;99.90
4390;DHT22;2209;48.982;8.406;2022-11-20T10:26:44;8.50;99.90
4390;DHT22;2209;48.982;8.406;2022-11-20T10:29:13;8.50;99.90
4390;DHT22;2209;48.982;8.406;2022-11-20T10:31:39;8.50;99.90
4390;DHT22;2209;48.982;8.406;2022-11-20T10:34:06;8.50;99.90
4390;DHT22;2209;48.982;8.406;2022-11-20T10:36:33;8.50;99.90
4390;DHT22;2209;48.982;8.406;2022-11-20T10:39:03;8.50;99.90
4390;DHT22;2209;48.982;8.406;2022-11-20T10:41:29;8.50;99.90
4390;DHT22;2209;48.982;8.406;2022-11-20T10:44:00;8.50;99.90
4390;DHT22;2209;48.982;8.406;2022-11-20T10:46:24;8.50;99.90
4390;DHT22;2209;48.982;8.406;2022-11-20T10:48:50;8.50;99.90
4390;DHT22;2209;48.982;8.406;2022-11-20T10:51:18;8.50;99.90
4390;DHT22;2209;48.982;8.406;2022-11-20T10:53:51;8.50;99.90
4390;DHT22;2209;48.982;8.406;2022-11-20T10:56:20;8.60;99.90
4390;DHT22;2209;48.982;8.406;2022-11-20T10:58:47;8.60;99.90
4390;DHT22;2209;48.982;8.406;2022-11-20T11:01:15;8.60;99.90
4390;DHT22;2209;48.982;8.406;2022-11-20T11:03:37;8.60;99.90
4390;DHT22;2209;48.982;8.406;2022-11-20T11:06:03;8.60;99.90
4390;DHT22;2209;48.982;8.406;2022-11-20T11:08:32;8.70;99.90
4390;DHT22;2209;48.982;8.406;2022-11-20T11:10:58;8.70;99.90
4390;DHT22;2209;48.982;8.406;2022-11-20T11:13:24;8.70;99.90
4390;DHT22;2209;48.982;8.406;2022-11-20T11:15:47;8.80;99.90
4390;DHT22;2209;48.982;8.406;2022-11-20T11:18:10;8.80;99.90
4390;DHT22;2209;48.982;8.406;2022-11-20T11:20:33;8.80;99.90
4390;DHT22;2209;48.982;8.406;2022-11-20T11:22:56;8.80;99.90
4390;DHT22;2209;48.982;8.406;2022-11-20T11:25:25;8.80;99.90
4390;DHT22;2209;48.982;8.406;2022-11-20T11:27:49;8.80;99.90
4390;DHT22;2209;48.982;8.406;2022-11-20T11:30:16;8.80;99.90
4390;DHT22;2209;48.982;8.406;2022-11-20T11:32:38;8.80;99.90
4390;DHT22;2209;48.982;8.406;2022-11-20T11:35:02;8.80;99.90
4390;DHT22;2209;48.982;8.406;2022-11-20T11:37:33;8.80;99.90
4390;DHT22;2209;48.982;8.406;2022-11-20T11:39:57;8.80;99.90
4390;DHT22;2209;48.982;8.406;2022-11-20T11:42:19;8.80;99.90
4390;DHT22;2209;48.982;8.406;2022-11-20T11:44:44;8.90;99.90
4390;DHT22;2209;48.982;8.406;2022-11-20T11:47:37;8.90;99.90
4390;DHT22;2209;48.982;8.406;2022-11-20T11:50:17;8.90;99.90
4390;DHT22;2209;48.982;8.406;2022-11-20T11:52:44;9.00;99.90
4390;DHT22;2209;48.982;8.406;2022-11-20T11:55:10;9.10;99.90
4390;DHT22;2209;48.982;8.406;2022-11-20T11:57:40;9.10;99.90
4390;DHT22;2209;48.982;8.406;2022-11-20T12:00:06;9.20;99.90
4390;DHT22;2209;48.982;8.406;2022-11-20T12:02:48;9.20;99.90
4390;DHT22;2209;48.982;8.406;2022-11-20T12:05:18;9.20;99.90
4390;DHT22;2209;48.982;8.406;2022-11-20T12:07:43;9.30;99.90
4390;DHT22;2209;48.982;8.406;2022-11-20T12:10:15;9.30;99.90
4390;DHT22;2209;48.982;8.406;2022-11-20T12:12:41;9.30;99.90
4390;DHT22;2209;48.982;8.406;2022-11-20T12:15:11;9.30;99.90
4390;DHT22;2209;48.982;8.406;2022-11-20T12:17:34;9.40;99.90
4390;DHT22;2209;48.982;8.406;2022-11-20T12:19:58;9.40;99.90
4390;DHT22;2209;48.982;8.406;2022-11-20T12:22:26;9.40;99.90
4390;DHT22;2209;48.982;8.406;2022-11-20T12:24:55;9.40;99.90
4390;DHT22;2209;48.982;8.406;2022-11-20T12:27:48;9.40;99.90
4390;DHT22;2209;48.982;8.406;2022-11-20T12:30:15;9.30;99.90
4390;DHT22;2209;48.982;8.406;2022-11-20T12:33:04;9.40;99.90
4390;DHT22;2209;48.982;8.406;2022-11-20T12:41:15;9.40;99.90
4390;DHT22;2209;48.982;8.406;2022-11-20T12:44:08;9.40;99.90
4390;DHT22;2209;48.982;8.406;2022-11-20T12:46:59;9.40;99.90
4390;DHT22;2209;48.982;8.406;2022-11-20T12:49:30;9.40;99.90
4390;DHT22;2209;48.982;8.406;2022-11-20T12:52:06;9.50;99.90
4390;DHT22;2209;48.982;8.406;2022-11-20T12:54:57;9.50;99.90
4390;DHT22;2209;48.982;8.406;2022-11-20T12:57:29;9.50;99.90
4390;DHT22;2209;48.982;8.406;2022-11-20T13:00:06;9.60;99.90
4390;DHT22;2209;48.982;8.406;2022-11-20T13:02:36;9.60;99.90
4390;DHT22;2209;48.982;8.406;2022-11-20T13:05:14;9.60;99.90
4390;DHT22;2209;48.982;8.406;2022-11-20T13:07:40;9.60;99.90
4390;DHT22;2209;48.982;8.406;2022-11-20T13:10:03;9.60;99.90
4390;DHT22;2209;48.982;8.406;2022-11-20T13:12:31;9.70;99.90
4390;DHT22;2209;48.982;8.406;2022-11-20T13:15:02;9.70;99.90
4390;DHT22;2209;48.982;8.406;2022-11-20T13:17:34;9.80;99.90
4390;DHT22;2209;48.982;8.406;2022-11-20T13:19:58;9.90;99.90
4390;DHT22;2209;48.982;8.406;2022-11-20T13:22:25;10.00;99.90
4390;DHT22;2209;48.982;8.406;2022-11-20T13:24:51;10.00;99.90
4390;DHT22;2209;48.982;8.406;2022-11-20T13:27:21;10.10;99.90
4390;DHT22;2209;48.982;8.406;2022-11-20T13:29:45;10.10;99.90
4390;DHT22;2209;48.982;8.406;2022-11-20T13:32:14;10.10;99.90
4390;DHT22;2209;48.982;8.406;2022-11-20T13:34:37;10.10;99.90
4390;DHT22;2209;48.982;8.406;2022-11-20T13:37:00;10.10;99.90
4390;DHT22;2209;48.982;8.406;2022-11-20T13:39:25;10.20;99.90
4390;DHT22;2209;48.982;8.406;2022-11-20T13:41:54;10.20;99.90
4390;DHT22;2209;48.982;8.406;2022-11-20T13:44:24;10.20;99.90
4390;DHT22;2209;48.982;8.406;2022-11-20T13:46:48;10.20;99.90
4390;DHT22;2209;48.982;8.406;2022-11-20T13:49:17;10.10;99.90
4390;DHT22;2209;48.982;8.406;2022-11-20T13:51:43;10.20;99.90
4390;DHT22;2209;48.982;8.406;2022-11-20T13:54:43;10.20;99.90
4390;DHT22;2209;48.982;8.406;2022-11-20T13:57:33;10.20;99.90
4390;DHT22;2209;48.982;8.406;2022-11-20T14:00:01;10.20;99.90
4390;DHT22;2209;48.982;8.406;2022-11-20T14:02:26;10.20;99.90
4390;DHT22;2209;48.982;8.406;2022-11-20T14:04:51;10.10;99.90
4390;DHT22;2209;48.982;8.406;2022-11-20T14:07:13;10.20;99.90
4390;DHT22;2209;48.982;8.406;2022-11-20T14:09:36;10.20;99.90
4390;DHT22;2209;48.982;8.406;2022-11-20T14:11:58;10.30;99.90
4390;DHT22;2209;48.982;8.406;2022-11-20T14:14:23;10.30;99.90
4390;DHT22;2209;48.982;8.406;2022-11-20T14:16:47;10.30;99.90
4390;DHT22;2209;48.982;8.406;2022-11-20T14:19:24;10.30;99.90
4390;DHT22;2209;48.982;8.406;2022-11-20T14:21:47;10.30;99.90
4390;DHT22;2209;48.982;8.406;2022-11-20T14:24:11;10.30;99.90
4390;DHT22;2209;48.982;8.406;2022-11-20T14:26:33;10.30;99.90
4390;DHT22;2209;48.982;8.406;2022-11-20T14:28:56;10.30;99.90
4390;DHT22;2209;48.982;8.406;2022-11-20T14:31:23;10.30;99.90
4390;DHT22;2209;48.982;8.406;2022-11-20T14:33:47;10.30;99.90
4390;DHT22;2209;48.982;8.406;2022-11-20T14:36:16;10.30;99.90
4390;DHT22;2209;48.982;8.406;2022-11-20T14:38:39;10.30;99.90
4390;DHT22;2209;48.982;8.406;2022-11-20T14:41:06;10.30;99.90
4390;DHT22;2209;48.982;8.406;2022-11-20T14:43:29;10.30;99.90
4390;DHT22;2209;48.982;8.406;2022-11-20T14:45:56;10.30;99.90
4390;DHT22;2209;48.982;8.406;2022-11-20T14:48:23;10.30;99.90
4390;DHT22;2209;48.982;8.406;2022-11-20T14:50:46;10.20;99.90
4390;DHT22;2209;48.982;8.406;2022-11-20T14:53:08;10.30;99.90
4390;DHT22;2209;48.982;8.406;2022-11-20T14:55:32;10.30;99.90
4390;DHT22;2209;48.982;8.406;2022-11-20T14:57:55;10.30;99.90
4390;DHT22;2209;48.982;8.406;2022-11-20T15:00:20;10.30;99.90
4390;DHT22;2209;48.982;8.406;2022-11-20T15:02:45;10.20;99.90
4390;DHT22;2209;48.982;8.406;2022-11-20T15:05:09;10.30;99.90
4390;DHT22;2209;48.982;8.406;2022-11-20T15:07:33;10.30;99.90
4390;DHT22;2209;48.982;8.406;2022-11-20T15:10:00;10.30;99.90
4390;DHT22;2209;48.982;8.406;2022-11-20T15:12:22;10.30;99.90
4390;DHT22;2209;48.982;8.406;2022-11-20T15:14:44;10.30;99.90
4390;DHT22;2209;48.982;8.406;2022-11-20T15:17:09;10.20;99.90
4390;DHT22;2209;48.982;8.406;2022-11-20T15:19:31;10.20;99.90
4390;DHT22;2209;48.982;8.406;2022-11-20T15:21:58;10.20;99.90
4390;DHT22;2209;48.982;8.406;2022-11-20T15:24:20;10.20;99.90
4390;DHT22;2209;48.982;8.406;2022-11-20T15:26:43;10.20;99.90
4390;DHT22;2209;48.982;8.406;2022-11-20T15:29:07;10.20;99.90
4390;DHT22;2209;48.982;8.406;2022-11-20T15:31:29;10.20;99.90
4390;DHT22;2209;48.982;8.406;2022-11-20T15:33:52;10.20;99.90
4390;DHT22;2209;48.982;8.406;2022-11-20T15:36:14;10.20;99.90
4390;DHT22;2209;48.982;8.406;2022-11-20T15:38:37;10.20;99.90
4390;DHT22;2209;48.982;8.406;2022-11-20T15:41:00;10.20;99.90
4390;DHT22;2209;48.982;8.406;2022-11-20T15:43:22;10.20;99.90
4390;DHT22;2209;48.982;8.406;2022-11-20T15:45:46;10.20;99.90
4390;DHT22;2209;48.982;8.406;2022-11-20T15:48:11;10.20;99.90
4390;DHT22;2209;48.982;8.406;2022-11-20T15:50:37;10.20;99.90
4390;DHT22;2209;48.982;8.406;2022-11-20T15:53:02;10.20;99.90
4390;DHT22;2209;48.982;8.406;2022-11-20T15:55:26;10.20;99.90
4390;DHT22;2209;48.982;8.406;2022-11-20T15:57:48;10.20;99.90
4390;DHT22;2209;48.982;8.406;2022-11-20T16:00:12;10.20;99.90
4390;DHT22;2209;48.982;8.406;2022-11-20T16:02:34;10.20;99.90
4390;DHT22;2209;48.982;8.406;2022-11-20T16:04:56;10.20;99.90
4390;DHT22;2209;48.982;8.406;2022-11-20T16:07:18;10.20;99.90